createdAt,value
2023-12-17T00:02:05.835Z,1.60
2023-12-17T00:04:32.791Z,1.60
2023-12-17T00:07:00.531Z,1.60
2023-12-17T00:09:27.547Z,1.50
2023-12-17T00:11:54.726Z,1.60
2023-12-17T00:14:21.697Z,1.60
2023-12-17T00:16:48.887Z,1.70
2023-12-17T00:19:16.135Z,1.70
2023-12-17T00:21:43.174Z,1.70
2023-12-17T00:24:10.058Z,1.80
2023-12-17T00:26:37.028Z,1.80
2023-12-17T00:29:03.914Z,1.80
2023-12-17T00:31:30.714Z,1.80
2023-12-17T00:33:57.991Z,1.80
2023-12-17T00:36:25.083Z,1.80
2023-12-17T00:38:52.193Z,1.80
2023-12-17T00:41:22.148Z,1.80
2023-12-17T00:43:49.381Z,1.80
2023-12-17T00:46:16.378Z,1.80
2023-12-17T00:48:43.784Z,1.80
2023-12-17T00:51:12.816Z,1.80
2023-12-17T00:53:39.886Z,1.80
2023-12-17T00:56:07.231Z,1.70
2023-12-17T00:58:34.249Z,1.70
2023-12-17T01:01:02.806Z,1.70
2023-12-17T01:03:30.188Z,1.70
2023-12-17T01:05:57.497Z,1.70
2023-12-17T01:08:24.728Z,1.70
2023-12-17T01:10:51.493Z,1.60
2023-12-17T01:13:18.423Z,1.60
2023-12-17T01:15:45.292Z,1.60
2023-12-17T01:18:12.337Z,1.60
2023-12-17T01:20:39.329Z,1.70
2023-12-17T01:23:06.211Z,1.70
2023-12-17T01:25:33.159Z,1.60
2023-12-17T01:27:59.919Z,1.70
2023-12-17T01:30:26.891Z,1.60
2023-12-17T01:32:55.309Z,1.60
2023-12-17T01:35:22.154Z,1.60
2023-12-17T01:37:48.916Z,1.50
2023-12-17T01:40:15.772Z,1.50
2023-12-17T01:42:42.544Z,1.50
2023-12-17T01:45:10.204Z,1.50
2023-12-17T01:47:37.291Z,1.50
2023-12-17T01:50:04.988Z,1.50
2023-12-17T01:52:31.855Z,1.40
2023-12-17T01:54:58.849Z,1.40
2023-12-17T01:57:25.766Z,1.40
2023-12-17T01:59:52.800Z,1.60
2023-12-17T02:02:19.595Z,1.60
2023-12-17T02:04:47.284Z,1.70
2023-12-17T02:07:14.251Z,1.70
2023-12-17T02:09:42.116Z,1.80
2023-12-17T02:12:09.137Z,1.90
2023-12-17T02:14:36.002Z,1.90
2023-12-17T02:17:02.768Z,2.00
2023-12-17T02:19:29.754Z,2.10
2023-12-17T02:21:56.583Z,2.20
2023-12-17T02:24:23.475Z,2.30
2023-12-17T02:26:50.317Z,2.30
2023-12-17T02:29:17.659Z,2.40
2023-12-17T02:31:44.506Z,2.50
2023-12-17T02:34:11.429Z,2.50
2023-12-17T02:36:40.016Z,2.60
2023-12-17T02:39:09.715Z,2.70
2023-12-17T02:41:36.657Z,2.80
2023-12-17T02:44:03.552Z,2.90
2023-12-17T02:46:30.422Z,2.90
2023-12-17T02:48:57.423Z,2.90
2023-12-17T02:51:24.319Z,2.90
2023-12-17T02:53:51.261Z,2.80
2023-12-17T02:56:18.272Z,2.90
2023-12-17T02:58:45.039Z,3.00
2023-12-17T03:01:11.876Z,3.00
2023-12-17T03:03:39.018Z,3.10
2023-12-17T03:06:06.181Z,3.00
2023-12-17T03:08:33.073Z,3.00
2023-12-17T03:10:59.866Z,3.10
2023-12-17T03:13:27.085Z,3.00
2023-12-17T03:15:53.938Z,3.00
2023-12-17T03:18:21.050Z,3.00
2023-12-17T03:20:48.126Z,3.00
2023-12-17T03:23:15.135Z,3.00
2023-12-17T03:25:41.973Z,3.10
2023-12-17T03:28:08.747Z,3.10
2023-12-17T03:30:35.889Z,3.10
2023-12-17T03:33:02.827Z,3.10
2023-12-17T03:35:29.730Z,3.10
2023-12-17T03:37:56.601Z,3.00
2023-12-17T03:40:23.563Z,3.00
2023-12-17T03:42:50.456Z,3.00
2023-12-17T03:45:17.316Z,3.10
2023-12-17T03:47:48.838Z,3.10
2023-12-17T03:50:20.287Z,3.10
2023-12-17T03:52:48.679Z,3.10
2023-12-17T03:55:16.081Z,3.10
2023-12-17T03:57:43.016Z,3.10
2023-12-17T04:00:13.459Z,3.10
2023-12-17T04:02:40.439Z,3.10
2023-12-17T04:05:08.784Z,3.20
2023-12-17T04:07:36.082Z,3.20
2023-12-17T04:10:04.123Z,3.20
2023-12-17T04:12:31.067Z,3.20
2023-12-17T04:14:58.099Z,3.20
2023-12-17T04:17:24.861Z,3.20
2023-12-17T04:19:51.741Z,3.20
2023-12-17T04:22:18.609Z,3.20
2023-12-17T04:24:45.448Z,3.20
2023-12-17T04:27:12.424Z,3.20
2023-12-17T04:29:39.161Z,3.30
2023-12-17T04:32:06.253Z,3.20
2023-12-17T04:34:33.072Z,3.20
2023-12-17T04:37:01.043Z,3.20
2023-12-17T04:39:28.231Z,3.20
2023-12-17T04:41:55.267Z,3.30
2023-12-17T04:44:22.069Z,3.20
2023-12-17T04:46:49.107Z,3.20
2023-12-17T04:49:16.070Z,3.20
2023-12-17T04:51:42.829Z,3.20
2023-12-17T04:54:10.097Z,3.20
2023-12-17T04:56:36.930Z,3.20
2023-12-17T04:59:04.121Z,3.30
2023-12-17T05:01:31.006Z,3.20
2023-12-17T05:03:57.902Z,3.20
2023-12-17T05:06:24.811Z,3.20
2023-12-17T05:08:52.038Z,3.20
2023-12-17T05:11:18.947Z,3.20
2023-12-17T05:13:45.724Z,3.20
2023-12-17T05:16:12.633Z,3.20
2023-12-17T05:18:39.487Z,3.10
2023-12-17T05:21:07.685Z,3.10
2023-12-17T05:23:34.543Z,3.20
2023-12-17T05:26:01.408Z,3.20
2023-12-17T05:28:29.109Z,3.20
2023-12-17T05:30:56.132Z,3.20
2023-12-17T05:33:23.115Z,3.20
2023-12-17T05:35:50.079Z,3.20
2023-12-17T05:38:17.372Z,3.20
2023-12-17T05:40:44.219Z,3.10
2023-12-17T05:43:11.111Z,3.20
2023-12-17T05:45:44.753Z,3.10
2023-12-17T05:48:18.021Z,3.10
2023-12-17T05:50:48.281Z,3.20
2023-12-17T05:53:15.104Z,3.20
2023-12-17T05:55:42.358Z,3.10
2023-12-17T05:58:09.147Z,3.20
2023-12-17T06:00:35.962Z,3.20
2023-12-17T06:03:02.982Z,3.10
2023-12-17T06:05:29.824Z,3.10
2023-12-17T06:07:56.704Z,3.10
2023-12-17T06:10:23.605Z,3.10
2023-12-17T06:12:50.457Z,3.10
2023-12-17T06:15:17.846Z,3.10
2023-12-17T06:17:45.233Z,3.00
2023-12-17T06:20:12.587Z,3.10
2023-12-17T06:22:39.450Z,3.00
2023-12-17T06:25:06.536Z,3.00
2023-12-17T06:27:35.885Z,3.10
2023-12-17T06:30:02.827Z,3.00
2023-12-17T06:32:29.692Z,3.00
2023-12-17T06:34:56.504Z,3.00
2023-12-17T06:37:23.344Z,3.10
2023-12-17T06:39:51.174Z,3.20
2023-12-17T06:42:18.037Z,3.20
2023-12-17T06:44:45.094Z,3.10
2023-12-17T06:47:18.395Z,3.10
2023-12-17T06:49:52.988Z,3.10
2023-12-17T06:52:19.725Z,3.10
2023-12-17T06:54:46.768Z,3.10
2023-12-17T06:57:13.434Z,3.10
2023-12-17T06:59:40.495Z,3.20
2023-12-17T07:02:07.331Z,3.30
2023-12-17T07:04:34.209Z,3.20
2023-12-17T07:07:01.090Z,3.20
2023-12-17T07:09:28.003Z,3.20
2023-12-17T07:11:54.875Z,3.20
2023-12-17T07:14:21.829Z,3.20
2023-12-17T07:16:49.127Z,3.30
2023-12-17T07:19:16.113Z,3.20
2023-12-17T07:21:42.912Z,3.20
2023-12-17T07:24:09.909Z,3.20
2023-12-17T07:26:36.909Z,3.20
2023-12-17T07:29:03.706Z,3.30
2023-12-17T07:31:30.603Z,3.20
2023-12-17T07:33:57.594Z,3.30
2023-12-17T07:36:24.373Z,3.20
2023-12-17T07:38:51.207Z,3.20
2023-12-17T07:41:18.017Z,3.10
2023-12-17T07:43:44.870Z,3.20
2023-12-17T07:46:12.121Z,3.20
2023-12-17T07:48:39.108Z,3.20
2023-12-17T07:51:06.510Z,3.10
2023-12-17T07:53:33.526Z,3.10
2023-12-17T07:56:01.120Z,3.10
2023-12-17T07:58:29.658Z,3.10
2023-12-17T08:00:56.495Z,3.20
2023-12-17T08:03:25.079Z,3.20
2023-12-17T08:05:54.155Z,3.30
2023-12-17T08:08:21.240Z,3.30
2023-12-17T08:10:48.231Z,3.30
2023-12-17T08:13:17.580Z,3.30
2023-12-17T08:15:45.643Z,3.40
2023-12-17T08:18:12.385Z,3.50
2023-12-17T08:20:39.353Z,3.50
2023-12-17T08:23:06.390Z,3.60
2023-12-17T08:25:34.789Z,3.70
2023-12-17T08:28:01.601Z,3.80
2023-12-17T08:30:28.700Z,3.90
2023-12-17T08:32:55.669Z,4.00
2023-12-17T08:35:22.588Z,4.10
2023-12-17T08:37:49.703Z,4.10
2023-12-17T08:40:16.681Z,4.00
2023-12-17T08:42:44.911Z,4.10
2023-12-17T08:45:13.290Z,4.10
2023-12-17T08:47:40.502Z,4.00
2023-12-17T08:50:08.359Z,3.90
2023-12-17T08:52:36.940Z,3.80
2023-12-17T08:55:04.354Z,3.80
2023-12-17T08:57:31.301Z,3.60
2023-12-17T08:59:58.316Z,3.60
2023-12-17T09:02:25.386Z,3.60
2023-12-17T09:04:53.893Z,3.70
2023-12-17T09:07:20.943Z,3.60
2023-12-17T09:09:47.772Z,3.70
2023-12-17T09:12:14.723Z,3.80
2023-12-17T09:14:42.438Z,3.70
2023-12-17T09:17:09.976Z,3.70
2023-12-17T09:19:37.091Z,3.70
2023-12-17T09:22:04.365Z,3.70
2023-12-17T09:24:31.444Z,3.70
2023-12-17T09:26:58.884Z,3.80
2023-12-17T09:29:25.721Z,3.80
2023-12-17T09:31:52.504Z,3.80
2023-12-17T09:34:19.384Z,3.90
2023-12-17T09:36:46.493Z,3.90
2023-12-17T09:39:13.343Z,3.90
2023-12-17T09:41:42.907Z,3.90
2023-12-17T09:44:09.711Z,3.90
2023-12-17T09:46:37.090Z,3.90
2023-12-17T09:49:04.081Z,3.90
2023-12-17T09:51:37.290Z,3.90
2023-12-17T09:54:06.297Z,3.90
2023-12-17T09:56:33.700Z,3.80
2023-12-17T09:59:00.598Z,3.70
2023-12-17T10:01:28.874Z,3.70
2023-12-17T10:03:57.978Z,3.60
2023-12-17T10:06:24.871Z,3.70
2023-12-17T10:08:51.909Z,3.60
2023-12-17T10:11:19.803Z,3.70
2023-12-17T10:13:46.647Z,3.80
2023-12-17T10:16:13.546Z,3.80
2023-12-17T10:18:40.437Z,3.90
2023-12-17T10:21:09.194Z,3.90
2023-12-17T10:23:49.667Z,3.90
2023-12-17T10:26:17.299Z,3.90
2023-12-17T10:28:48.400Z,3.90
2023-12-17T10:31:17.824Z,4.00
2023-12-17T10:34:00.021Z,4.00
2023-12-17T10:36:27.104Z,4.00
2023-12-17T10:38:54.739Z,4.00
2023-12-17T10:41:23.968Z,4.10
2023-12-17T10:43:52.566Z,4.10
2023-12-17T10:46:20.584Z,4.20
2023-12-17T10:48:48.984Z,4.20
2023-12-17T10:51:19.477Z,4.20
2023-12-17T10:53:46.519Z,4.30
2023-12-17T10:56:13.919Z,4.20
2023-12-17T10:58:41.905Z,4.30
2023-12-17T11:01:10.200Z,4.40
2023-12-17T11:03:37.374Z,4.20
2023-12-17T11:06:05.949Z,4.30
2023-12-17T11:08:33.489Z,4.40
2023-12-17T11:11:00.853Z,4.50
2023-12-17T11:13:28.591Z,4.60
2023-12-17T11:15:56.015Z,4.60
2023-12-17T11:18:24.984Z,4.60
2023-12-17T11:20:54.090Z,4.60
2023-12-17T11:23:21.708Z,4.70
2023-12-17T11:25:48.791Z,4.70
2023-12-17T11:28:28.272Z,4.60
2023-12-17T11:30:56.741Z,4.60
2023-12-17T11:33:26.223Z,4.60
2023-12-17T11:35:53.224Z,4.60
2023-12-17T11:38:21.648Z,4.60
2023-12-17T11:40:48.618Z,4.70
2023-12-17T11:43:15.554Z,4.70
2023-12-17T11:45:46.152Z,4.80
2023-12-17T11:48:15.880Z,4.80
2023-12-17T11:50:44.306Z,4.80
2023-12-17T11:53:15.420Z,4.80
2023-12-17T11:56:04.747Z,4.80
2023-12-17T11:58:31.582Z,4.70
2023-12-17T12:01:13.256Z,4.60
2023-12-17T12:03:42.105Z,4.80
2023-12-17T12:06:12.317Z,4.80
2023-12-17T12:08:47.424Z,5.00
2023-12-17T12:11:16.883Z,4.90
2023-12-17T12:13:46.453Z,4.90
2023-12-17T12:16:14.098Z,4.90
2023-12-17T12:18:41.338Z,5.00
2023-12-17T12:21:19.427Z,5.00
2023-12-17T12:23:51.379Z,5.00
2023-12-17T12:26:19.246Z,5.00
2023-12-17T12:28:51.648Z,4.90
2023-12-17T12:31:18.666Z,4.90
2023-12-17T12:33:52.806Z,4.90
2023-12-17T12:36:19.770Z,4.80
2023-12-17T12:38:46.660Z,4.80
2023-12-17T12:41:13.566Z,4.80
2023-12-17T12:43:41.219Z,4.70
2023-12-17T12:46:08.755Z,4.70
2023-12-17T12:48:37.908Z,4.70
2023-12-17T12:51:05.510Z,4.90
2023-12-17T12:53:32.470Z,4.90
2023-12-17T12:55:59.458Z,4.90
2023-12-17T12:58:26.590Z,4.90
2023-12-17T13:00:53.556Z,4.90
2023-12-17T13:03:21.543Z,5.00
2023-12-17T13:05:49.399Z,5.00
2023-12-17T13:08:16.206Z,5.10
2023-12-17T13:10:42.973Z,5.20
2023-12-17T13:13:10.333Z,5.20
2023-12-17T13:15:37.238Z,5.30
2023-12-17T13:18:04.516Z,5.30
2023-12-17T13:20:31.843Z,5.40
2023-12-17T13:22:59.021Z,5.30
2023-12-17T13:25:25.881Z,5.30
2023-12-17T13:27:52.939Z,5.10
2023-12-17T13:30:20.346Z,5.00
2023-12-17T13:32:47.707Z,5.00
2023-12-17T13:35:14.808Z,4.90
2023-12-17T13:37:43.877Z,4.80
2023-12-17T13:40:14.056Z,4.90
2023-12-17T13:42:41.438Z,4.90
2023-12-17T13:45:09.295Z,4.90
2023-12-17T13:47:36.569Z,5.00
2023-12-17T13:50:03.939Z,5.00
2023-12-17T13:52:31.395Z,4.90
2023-12-17T13:54:58.207Z,4.80
2023-12-17T13:57:25.139Z,4.90
2023-12-17T13:59:52.721Z,4.90
2023-12-17T14:02:21.748Z,4.80
2023-12-17T14:04:48.539Z,4.80
2023-12-17T14:07:15.349Z,4.70
2023-12-17T14:09:42.219Z,4.70
2023-12-17T14:12:09.210Z,4.70
2023-12-17T14:14:36.005Z,4.80
2023-12-17T14:17:03.280Z,4.80
2023-12-17T14:19:35.927Z,4.80
2023-12-17T14:22:04.846Z,4.80
2023-12-17T14:24:32.189Z,4.80
2023-12-17T14:26:59.176Z,4.80
2023-12-17T14:29:26.033Z,4.80
2023-12-17T14:31:54.736Z,4.70
2023-12-17T14:34:21.827Z,4.70
2023-12-17T14:36:48.749Z,4.70
2023-12-17T14:39:15.664Z,4.70
2023-12-17T14:41:43.066Z,4.70
2023-12-17T14:44:10.034Z,4.60
2023-12-17T14:46:36.930Z,4.50
2023-12-17T14:49:04.018Z,4.50
2023-12-17T14:51:32.573Z,4.50
2023-12-17T14:54:00.736Z,4.50
2023-12-17T14:56:27.651Z,4.50
2023-12-17T14:58:58.036Z,4.40
2023-12-17T15:01:31.799Z,4.30
2023-12-17T15:04:02.284Z,4.30
2023-12-17T15:06:29.045Z,4.30
2023-12-17T15:08:57.024Z,4.20
2023-12-17T15:11:24.004Z,4.20
2023-12-17T15:13:50.984Z,4.20
2023-12-17T15:16:17.781Z,4.10
2023-12-17T15:18:45.098Z,4.10
2023-12-17T15:21:16.780Z,4.10
2023-12-17T15:23:43.742Z,4.10
2023-12-17T15:26:10.679Z,4.10
2023-12-17T15:28:38.200Z,4.10
2023-12-17T15:31:05.477Z,4.10
2023-12-17T15:33:33.171Z,4.10
2023-12-17T15:36:00.654Z,4.10
2023-12-17T15:38:27.714Z,4.20
2023-12-17T15:40:54.610Z,4.10
2023-12-17T15:43:21.415Z,4.10
2023-12-17T15:45:48.445Z,4.00
2023-12-17T15:48:15.422Z,4.00
2023-12-17T15:50:44.150Z,4.00
2023-12-17T15:53:12.688Z,4.00
2023-12-17T15:55:39.497Z,4.00
2023-12-17T15:58:06.274Z,4.10
2023-12-17T16:00:33.584Z,4.10
2023-12-17T16:03:02.098Z,4.10
2023-12-17T16:05:29.696Z,4.00
2023-12-17T16:07:57.882Z,4.00
2023-12-17T16:10:26.052Z,4.00
2023-12-17T16:12:53.368Z,4.00
2023-12-17T16:15:21.762Z,4.00
2023-12-17T16:17:48.771Z,3.90
2023-12-17T16:20:18.020Z,3.90
2023-12-17T16:22:47.074Z,3.90
2023-12-17T16:25:14.141Z,3.80
2023-12-17T16:27:41.114Z,3.90
2023-12-17T16:30:08.684Z,3.80
2023-12-17T16:32:39.560Z,3.90
2023-12-17T16:35:10.098Z,3.90
2023-12-17T16:37:42.763Z,3.80
2023-12-17T16:40:14.294Z,3.80
2023-12-17T16:42:42.733Z,3.80
2023-12-17T16:45:11.931Z,3.80
2023-12-17T16:47:39.050Z,3.80
2023-12-17T16:50:08.685Z,3.90
2023-12-17T16:52:37.950Z,3.80
2023-12-17T16:55:05.130Z,3.90
2023-12-17T16:57:32.307Z,3.90
2023-12-17T16:59:59.374Z,3.90
2023-12-17T17:02:26.284Z,3.80
2023-12-17T17:04:53.735Z,3.80
2023-12-17T17:07:20.706Z,3.90
2023-12-17T17:09:50.081Z,3.80
2023-12-17T17:12:17.511Z,3.80
2023-12-17T17:14:45.248Z,3.70
2023-12-17T17:17:12.128Z,3.70
2023-12-17T17:19:39.296Z,3.70
2023-12-17T17:22:08.636Z,3.60
2023-12-17T17:24:35.785Z,3.60
2023-12-17T17:27:05.739Z,3.60
2023-12-17T17:29:32.655Z,3.60
2023-12-17T17:31:59.897Z,3.60
2023-12-17T17:34:26.998Z,3.60
2023-12-17T17:36:54.215Z,3.50
2023-12-17T17:39:22.615Z,3.50
2023-12-17T17:41:51.594Z,3.50
2023-12-17T17:44:18.666Z,3.50
2023-12-17T17:46:46.701Z,3.50
2023-12-17T17:49:14.898Z,3.60
2023-12-17T17:51:42.801Z,3.60
2023-12-17T17:54:12.101Z,3.60
2023-12-17T17:56:39.519Z,3.60
2023-12-17T17:59:06.471Z,3.60
2023-12-17T18:01:36.787Z,3.60
2023-12-17T18:04:04.169Z,3.60
2023-12-17T18:06:33.610Z,3.70
2023-12-17T18:09:00.543Z,3.60
2023-12-17T18:11:27.527Z,3.70
2023-12-17T18:13:55.585Z,3.70
2023-12-17T18:16:23.362Z,3.70
2023-12-17T18:18:53.689Z,3.60
2023-12-17T18:21:23.346Z,3.60
2023-12-17T18:23:50.682Z,3.60
2023-12-17T18:26:20.877Z,3.60
2023-12-17T18:28:48.067Z,3.70
2023-12-17T18:31:14.999Z,3.60
2023-12-17T18:33:44.580Z,3.60
2023-12-17T18:36:11.723Z,3.60
2023-12-17T18:38:45.907Z,3.60
2023-12-17T18:41:14.030Z,3.60
2023-12-17T18:43:41.499Z,3.50
2023-12-17T18:46:15.877Z,3.50
2023-12-17T18:48:43.657Z,3.50
2023-12-17T18:51:11.000Z,3.50
2023-12-17T18:53:39.514Z,3.50
2023-12-17T18:56:06.853Z,3.40
2023-12-17T18:58:34.001Z,3.40
2023-12-17T19:01:01.049Z,3.40
2023-12-17T19:03:27.921Z,3.40
2023-12-17T19:05:54.745Z,3.40
2023-12-17T19:08:21.748Z,3.40
2023-12-17T19:10:48.666Z,3.30
2023-12-17T19:13:16.288Z,3.30
2023-12-17T19:15:44.282Z,3.30
2023-12-17T19:18:11.889Z,3.30
2023-12-17T19:20:40.434Z,3.20
2023-12-17T19:23:08.032Z,3.20
2023-12-17T19:25:34.954Z,3.30
2023-12-17T19:28:01.860Z,3.20
2023-12-17T19:30:29.231Z,3.20
2023-12-17T19:32:56.961Z,3.10
2023-12-17T19:35:24.141Z,3.10
2023-12-17T19:37:50.946Z,3.10
2023-12-17T19:40:17.952Z,3.10
2023-12-17T19:42:45.670Z,3.10
2023-12-17T19:45:14.635Z,3.10
2023-12-17T19:47:42.119Z,3.10
2023-12-17T19:50:09.150Z,3.00
2023-12-17T19:52:36.026Z,3.00
2023-12-17T19:55:02.802Z,3.00
2023-12-17T19:57:29.729Z,3.00
2023-12-17T19:59:56.722Z,3.00
2023-12-17T20:02:23.539Z,3.10
2023-12-17T20:04:50.423Z,3.00
2023-12-17T20:07:21.155Z,3.00
2023-12-17T20:09:48.309Z,2.90
2023-12-17T20:12:15.082Z,3.00
2023-12-17T20:14:41.900Z,3.00
2023-12-17T20:17:08.703Z,3.00
2023-12-17T20:19:35.691Z,2.90
2023-12-17T20:22:02.653Z,2.90
2023-12-17T20:24:29.713Z,3.00
2023-12-17T20:26:56.657Z,2.90
2023-12-17T20:29:23.457Z,2.90
2023-12-17T20:31:52.291Z,3.00
2023-12-17T20:34:21.982Z,3.00
2023-12-17T20:36:49.315Z,3.00
2023-12-17T20:39:16.163Z,3.00
2023-12-17T20:41:43.203Z,3.00
2023-12-17T20:44:09.923Z,2.90
2023-12-17T20:46:36.836Z,2.90
2023-12-17T20:49:03.990Z,2.90
2023-12-17T20:51:31.004Z,2.90
2023-12-17T20:53:57.901Z,2.90
2023-12-17T20:56:24.829Z,2.90
2023-12-17T20:58:53.271Z,2.80
2023-12-17T21:01:20.668Z,2.80
2023-12-17T21:03:47.908Z,2.80
2023-12-17T21:06:23.358Z,2.80
2023-12-17T21:08:50.317Z,2.80
2023-12-17T21:11:17.434Z,2.80
2023-12-17T21:13:45.710Z,2.80
2023-12-17T21:16:13.430Z,2.90
2023-12-17T21:18:40.672Z,2.90
2023-12-17T21:21:08.896Z,2.90
2023-12-17T21:23:35.944Z,3.00
2023-12-17T21:26:03.948Z,3.00
2023-12-17T21:28:31.062Z,2.90
2023-12-17T21:30:58.018Z,2.90
2023-12-17T21:33:25.359Z,2.90
2023-12-17T21:35:52.521Z,2.90
2023-12-17T21:38:21.289Z,2.90
2023-12-17T21:40:48.368Z,2.90
2023-12-17T21:43:15.216Z,2.90
2023-12-17T21:45:42.296Z,2.90
2023-12-17T21:48:09.585Z,2.90
2023-12-17T21:50:36.669Z,2.90
2023-12-17T21:53:03.887Z,2.90
2023-12-17T21:55:30.845Z,2.90
2023-12-17T21:57:57.954Z,2.90
2023-12-17T22:00:25.365Z,2.80
2023-12-17T22:02:52.440Z,2.80
2023-12-17T22:05:20.101Z,2.80
2023-12-17T22:07:47.816Z,2.80
2023-12-17T22:10:15.965Z,2.80
2023-12-17T22:12:46.026Z,2.70
2023-12-17T22:15:13.109Z,2.70
2023-12-17T22:17:40.185Z,2.60
2023-12-17T22:20:07.960Z,2.50
2023-12-17T22:22:34.870Z,2.40
2023-12-17T22:25:02.360Z,2.50
2023-12-17T22:27:30.525Z,2.40
2023-12-17T22:30:00.895Z,2.50
2023-12-17T22:32:27.757Z,2.50
2023-12-17T22:34:54.816Z,2.50
2023-12-17T22:37:21.747Z,2.50
2023-12-17T22:39:48.732Z,2.50
2023-12-17T22:42:15.636Z,2.40
2023-12-17T22:44:45.006Z,2.40
2023-12-17T22:47:11.939Z,2.40
2023-12-17T22:49:38.968Z,2.40
2023-12-17T22:52:05.890Z,2.40
2023-12-17T22:54:36.320Z,2.30
2023-12-17T22:57:03.467Z,2.20
2023-12-17T22:59:30.470Z,2.00
2023-12-17T23:01:57.345Z,1.90
2023-12-17T23:04:24.173Z,1.90
2023-12-17T23:06:51.029Z,1.80
2023-12-17T23:09:18.187Z,1.80
2023-12-17T23:11:45.013Z,1.80
2023-12-17T23:14:11.888Z,1.70
2023-12-17T23:16:38.789Z,1.80
2023-12-17T23:19:05.803Z,1.80
2023-12-17T23:21:32.590Z,1.70
2023-12-17T23:23:59.660Z,1.60
2023-12-17T23:26:26.545Z,1.70
2023-12-17T23:28:53.576Z,1.60
2023-12-17T23:31:20.481Z,1.80
2023-12-17T23:33:47.468Z,1.70
2023-12-17T23:36:14.520Z,1.60
2023-12-17T23:38:41.483Z,1.50
2023-12-17T23:41:08.800Z,1.50
2023-12-17T23:43:40.180Z,1.60
2023-12-17T23:46:07.398Z,1.50
2023-12-17T23:48:34.506Z,1.60
2023-12-17T23:51:01.400Z,1.50
2023-12-17T23:53:28.415Z,1.50
2023-12-17T23:55:55.205Z,1.40
2023-12-17T23:58:22.054Z,1.50
